Menu Horizontal
luftaufnahme
Willkommen auf der Webseite der privaten Wetterstation -- Taufkirchen an der Pram -- 48°24'29,52" Nord  <>  13°32'13,20" Ost

Wetterdaten - Samstag, 16.02.2019 - Taufkirchen an der Pram     336 m über NN
Wetterdaten: aktuell Samstag, 16.02.2019 11:30
Datum Zeit Temp. A. Feuchte A. Luftdruck Regen Wind Sonnenschein UV Solar Windchill Empfang
16.02.2019 11:30 5,7 °C 73 % 1033,8 hPa 0,0 l/m² 0,2 km/h 10 min 2,1 UV-I 424 W/m² 5,7 °C 99 %
16.02.2019 11:20 5,3 °C 76 % 1033,7 hPa 0,0 l/m² 0,3 km/h 10 min 2,0 UV-I 422 W/m² 5,3 °C 100 %
16.02.2019 11:10 5,2 °C 77 % 1033,7 hPa 0,0 l/m² 0,2 km/h 10 min 1,9 UV-I 387 W/m² 5,2 °C 100 %
16.02.2019 11:00 4,4 °C 80 % 1033,8 hPa 0,0 l/m² 0,0 km/h 10 min 1,9 UV-I 431 W/m² 4,4 °C 100 %
16.02.2019 10:50 3,7 °C 81 % 1033,9 hPa 0,0 l/m² 0,4 km/h 10 min 1,8 UV-I 406 W/m² 3,7 °C 100 %
16.02.2019 10:40 3,0 °C 83 % 1033,8 hPa 0,0 l/m² 0,0 km/h 10 min 1,6 UV-I 302 W/m² 3,0 °C 100 %
16.02.2019 10:30 2,8 °C 84 % 1033,9 hPa 0,0 l/m² 0,1 km/h 10 min 1,5 UV-I 286 W/m² 2,8 °C 100 %
16.02.2019 10:20 2,3 °C 86 % 1033,9 hPa 0,0 l/m² 0,1 km/h 10 min 1,4 UV-I 286 W/m² 2,3 °C 100 %
16.02.2019 10:10 2,3 °C 88 % 1033,9 hPa 0,0 l/m² 0,1 km/h 10 min 1,4 UV-I 300 W/m² 2,3 °C 100 %
16.02.2019 10:00 1,9 °C 91 % 1034,0 hPa 0,0 l/m² 0,3 km/h 10 min 1,3 UV-I 294 W/m² 1,9 °C 100 %
16.02.2019 09:50 1,4 °C 93 % 1033,9 hPa 0,0 l/m² 0,1 km/h 10 min 1,2 UV-I 290 W/m² 1,4 °C 100 %
16.02.2019 09:40 1,0 °C 94 % 1034,0 hPa 0,0 l/m² 0,0 km/h 10 min 1,1 UV-I 273 W/m² 1,0 °C 100 %
16.02.2019 09:30 0,2 °C 95 % 1034,0 hPa 0,0 l/m² 0,0 km/h 10 min 1,0 UV-I 298 W/m² 0,2 °C 100 %
16.02.2019 09:20 -0,3 °C 95 % 1033,9 hPa 0,0 l/m² 0,0 km/h 10 min 0,9 UV-I 214 W/m² -0,3 °C 100 %
16.02.2019 09:10 -0,8 °C 95 % 1033,9 hPa 0,0 l/m² 0,0 km/h 10 min 0,8 UV-I 174 W/m² -0,8 °C 100 %
16.02.2019 09:00 -1,3 °C 95 % 1034,1 hPa 0,0 l/m² 0,0 km/h 10 min 0,7 UV-I 153 W/m² -1,3 °C 100 %
16.02.2019 08:50 -1,4 °C 95 % 1033,9 hPa 0,2 l/m² 0,0 km/h 10 min 0,7 UV-I 126 W/m² -1,4 °C 100 %
16.02.2019 08:40 -2,1 °C 95 % 1033,8 hPa 0,0 l/m² 0,0 km/h 0 min 0,6 UV-I 90 W/m² -2,1 °C 97 %
16.02.2019 08:30 -2,7 °C 95 % 1033,8 hPa 0,0 l/m² 0,0 km/h 0 min 0,4 UV-I 64 W/m² -2,7 °C 93 %
16.02.2019 08:20 -3,4 °C 95 % 1033,6 hPa 0,0 l/m² 0,0 km/h 0 min 0,0 UV-I 42 W/m² -3,4 °C 99 %
16.02.2019 08:10 -3,8 °C 94 % 1033,5 hPa 0,0 l/m² 0,0 km/h 0 min 0,0 UV-I 33 W/m² -3,8 °C 100 %
16.02.2019 08:00 -3,9 °C 94 % 1033,4 hPa 0,0 l/m² 0,0 km/h 0 min 0,0 UV-I 24 W/m² -3,9 °C 100 %
16.02.2019 07:50 -4,1 °C 94 % 1033,3 hPa 0,0 l/m² 0,0 km/h 0 min 0,0 UV-I 17 W/m² -4,1 °C 100 %
16.02.2019 07:40 -4,2 °C 94 % 1033,1 hPa 0,0 l/m² 0,0 km/h 0 min 0,0 UV-I 11 W/m² -4,2 °C 100 %
16.02.2019 07:30 -4,2 °C 94 % 1032,9 hPa 0,0 l/m² 0,0 km/h 0 min 0,0 UV-I 6 W/m² -4,2 °C 99 %
16.02.2019 07:20 -4,1 °C 94 % 1032,8 hPa 0,0 l/m² 0,0 km/h 0 min 0,0 UV-I 1 W/m² -4,1 °C 99 %
16.02.2019 07:10 -4,1 °C 94 % 1032,6 hPa 0,0 l/m² 0,0 km/h 0 min 0,0 UV-I 0 W/m² -4,1 °C 100 %
16.02.2019 07:00 -4,1 °C 94 % 1032,5 hPa 0,0 l/m² 0,0 km/h 0 min 0,0 UV-I 0 W/m² -4,1 °C 100 %
16.02.2019 06:50 -4,0 °C 94 % 1032,4 hPa 0,0 l/m² 0,0 km/h 0 min 0,0 UV-I 0 W/m² -4,0 °C 100 %
16.02.2019 06:40 -3,9 °C 94 % 1032,4 hPa 0,0 l/m² 0,0 km/h 0 min 0,0 UV-I 0 W/m² -3,9 °C 100 %
16.02.2019 06:30 -3,8 °C 94 % 1032,3 hPa 0,0 l/m² 0,0 km/h 0 min 0,0 UV-I 0 W/m² -3,8 °C 100 %
16.02.2019 06:20 -3,8 °C 94 % 1032,1 hPa 0,0 l/m² 0,0 km/h 0 min 0,0 UV-I 0 W/m² -3,8 °C 100 %
16.02.2019 06:10 -3,8 °C 94 % 1032,1 hPa 0,0 l/m² 0,0 km/h 0 min 0,0 UV-I 0 W/m² -3,8 °C 100 %
16.02.2019 06:00 -3,8 °C 94 % 1032,0 hPa 0,0 l/m² 0,0 km/h 0 min 0,0 UV-I 0 W/m² -3,8 °C 100 %
16.02.2019 05:50 -3,8 °C 94 % 1032,0 hPa 0,0 l/m² 0,0 km/h 0 min 0,0 UV-I 0 W/m² -3,8 °C 100 %
16.02.2019 05:40 -3,8 °C 94 % 1032,0 hPa 0,0 l/m² 0,0 km/h 0 min 0,0 UV-I 0 W/m² -3,8 °C 99 %
16.02.2019 05:30 -3,8 °C 94 % 1031,9 hPa 0,0 l/m² 0,0 km/h 0 min 0,0 UV-I 0 W/m² -3,8 °C 90 %
16.02.2019 05:20 -3,8 °C 94 % 1032,0 hPa 0,0 l/m² 0,0 km/h 0 min 0,0 UV-I 0 W/m² -3,8 °C 100 %
16.02.2019 05:10 -3,8 °C 94 % 1032,1 hPa 0,0 l/m² 0,0 km/h 0 min 0,0 UV-I 0 W/m² -3,8 °C 100 %
16.02.2019 05:00 -3,8 °C 93 % 1032,1 hPa 0,0 l/m² 0,0 km/h 0 min 0,0 UV-I 0 W/m² -3,8 °C 100 %
16.02.2019 04:50 -3,7 °C 93 % 1032,1 hPa 0,0 l/m² 0,0 km/h 0 min 0,0 UV-I 0 W/m² -3,7 °C 100 %
16.02.2019 04:40 -3,6 °C 94 % 1032,1 hPa 0,0 l/m² 0,0 km/h 0 min 0,0 UV-I 0 W/m² -3,6 °C 100 %
16.02.2019 04:30 -3,6 °C 94 % 1032,1 hPa 0,0 l/m² 0,0 km/h 0 min 0,0 UV-I 0 W/m² -3,6 °C 100 %
16.02.2019 04:20 -3,5 °C 93 % 1032,1 hPa 0,0 l/m² 0,0 km/h 0 min 0,0 UV-I 0 W/m² -3,5 °C 99 %
16.02.2019 04:10 -3,4 °C 93 % 1032,2 hPa 0,0 l/m² 0,0 km/h 0 min 0,0 UV-I 0 W/m² -3,4 °C 100 %
16.02.2019 04:00 -3,3 °C 93 % 1032,2 hPa 0,0 l/m² 0,0 km/h 0 min 0,0 UV-I 0 W/m² -3,3 °C 100 %
16.02.2019 03:50 -3,3 °C 94 % 1032,2 hPa 0,0 l/m² 0,0 km/h 0 min 0,0 UV-I 0 W/m² -3,3 °C 100 %
16.02.2019 03:40 -3,2 °C 93 % 1032,2 hPa 0,0 l/m² 0,0 km/h 0 min 0,0 UV-I 0 W/m² -3,2 °C 100 %
16.02.2019 03:30 -3,1 °C 93 % 1032,4 hPa 0,0 l/m² 0,2 km/h 0 min 0,0 UV-I 0 W/m² -3,1 °C 100 %
16.02.2019 03:20 -3,1 °C 93 % 1032,5 hPa 0,0 l/m² 0,1 km/h 0 min 0,0 UV-I 0 W/m² -3,1 °C 100 %
16.02.2019 03:10 -3,1 °C 93 % 1032,6 hPa 0,0 l/m² 0,1 km/h 0 min 0,0 UV-I 0 W/m² -3,1 °C 100 %
16.02.2019 03:00 -3,3 °C 93 % 1032,8 hPa 0,0 l/m² 0,0 km/h 0 min 0,0 UV-I 0 W/m² -3,3 °C 100 %
16.02.2019 02:50 -3,3 °C 93 % 1032,9 hPa 0,0 l/m² 0,0 km/h 0 min 0,0 UV-I 0 W/m² -3,3 °C 91 %
16.02.2019 02:40 -3,1 °C 93 % 1032,9 hPa 0,0 l/m² 0,0 km/h 0 min 0,0 UV-I 0 W/m² -3,1 °C 100 %
16.02.2019 02:30 -3,1 °C 93 % 1033,1 hPa 0,0 l/m² 0,0 km/h 0 min 0,0 UV-I 0 W/m² -3,1 °C 100 %
16.02.2019 02:20 -3,1 °C 93 % 1033,3 hPa 0,0 l/m² 0,0 km/h 0 min 0,0 UV-I 0 W/m² -3,1 °C 100 %
16.02.2019 02:10 -3,0 °C 93 % 1033,3 hPa 0,0 l/m² 0,0 km/h 0 min 0,0 UV-I 0 W/m² -3,0 °C 100 %
16.02.2019 02:00 -2,8 °C 93 % 1033,4 hPa 0,0 l/m² 0,0 km/h 0 min 0,0 UV-I 0 W/m² -2,8 °C 100 %
16.02.2019 01:50 -2,7 °C 93 % 1033,5 hPa 0,0 l/m² 0,0 km/h 0 min 0,0 UV-I 0 W/m² -2,7 °C 100 %
16.02.2019 01:40 -2,6 °C 93 % 1033,6 hPa 0,0 l/m² 0,0 km/h 0 min 0,0 UV-I 0 W/m² -2,6 °C 100 %
16.02.2019 01:30 -2,5 °C 93 % 1033,5 hPa 0,0 l/m² 0,0 km/h 0 min 0,0 UV-I 0 W/m² -2,5 °C 100 %
16.02.2019 01:20 -2,4 °C 93 % 1033,6 hPa 0,0 l/m² 0,0 km/h 0 min 0,0 UV-I 0 W/m² -2,4 °C 100 %
16.02.2019 01:10 -2,4 °C 93 % 1033,7 hPa 0,0 l/m² 0,0 km/h 0 min 0,0 UV-I 0 W/m² -2,4 °C 100 %
16.02.2019 01:00 -2,4 °C 93 % 1033,8 hPa 0,0 l/m² 0,0 km/h 0 min 0,0 UV-I 0 W/m² -2,4 °C 100 %
16.02.2019 00:50 -2,4 °C 93 % 1033,8 hPa 0,0 l/m² 0,0 km/h 0 min 0,0 UV-I 0 W/m² -2,4 °C 100 %
16.02.2019 00:40 -2,3 °C 93 % 1033,9 hPa 0,0 l/m² 0,0 km/h 0 min 0,0 UV-I 0 W/m² -2,3 °C 100 %
16.02.2019 00:30 -2,3 °C 93 % 1034,0 hPa 0,0 l/m² 0,3 km/h 0 min 0,0 UV-I 0 W/m² -2,3 °C 100 %
16.02.2019 00:20 -2,2 °C 93 % 1034,0 hPa 0,0 l/m² 0,0 km/h 0 min 0,0 UV-I 0 W/m² -2,2 °C 100 %
16.02.2019 00:10 -2,2 °C 93 % 1034,0 hPa 0,0 l/m² 0,0 km/h 0 min 0,0 UV-I 0 W/m² -2,2 °C 100 %
16.02.2019 00:00 -2,2 °C 92 % 1034,1 hPa 0,0 l/m² 0,0 km/h 0 min 0,0 UV-I 0 W/m² -2,2 °C 100 %
15.02.2019 23:50 -2,2 °C 92 % 1034,1 hPa 0,0 l/m² 0,0 km/h 0 min 0,0 UV-I 0 W/m² -2,2 °C 100 %
15.02.2019 23:40 -2,2 °C 92 % 1034,1 hPa 0,0 l/m² 0,0 km/h 0 min 0,0 UV-I 0 W/m² -2,2 °C 100 %
15.02.2019 23:30 -2,1 °C 92 % 1034,2 hPa 0,0 l/m² 0,0 km/h 0 min 0,0 UV-I 0 W/m² -2,1 °C 91 %
15.02.2019 23:20 -1,8 °C 92 % 1034,3 hPa 0,0 l/m² 0,0 km/h 0 min 0,0 UV-I 0 W/m² -1,8 °C 100 %
15.02.2019 23:10 -1,7 °C 92 % 1034,2 hPa 0,0 l/m² 0,0 km/h 0 min 0,0 UV-I 0 W/m² -1,7 °C 100 %
15.02.2019 23:00 -1,6 °C 92 % 1034,1 hPa 0,0 l/m² 0,0 km/h 0 min 0,0 UV-I 0 W/m² -1,6 °C 100 %
15.02.2019 22:50 -1,5 °C 92 % 1034,2 hPa 0,0 l/m² 0,0 km/h 0 min 0,0 UV-I 0 W/m² -1,5 °C 91 %
15.02.2019 22:40 -1,4 °C 92 % 1034,2 hPa 0,0 l/m² 0,3 km/h 0 min 0,0 UV-I 0 W/m² -1,4 °C 100 %
15.02.2019 22:30 -1,4 °C 92 % 1034,2 hPa 0,0 l/m² 0,0 km/h 0 min 0,0 UV-I 0 W/m² -1,4 °C 100 %
15.02.2019 22:20 -1,4 °C 91 % 1034,2 hPa 0,0 l/m² 0,0 km/h 0 min 0,0 UV-I 0 W/m² -1,4 °C 100 %
15.02.2019 22:10 -1,3 °C 91 % 1034,4 hPa 0,0 l/m² 0,0 km/h 0 min 0,0 UV-I 0 W/m² -1,3 °C 100 %
15.02.2019 22:00 -1,2 °C 91 % 1034,5 hPa 0,0 l/m² 0,0 km/h 0 min 0,0 UV-I 0 W/m² -1,2 °C 99 %
15.02.2019 21:50 -1,1 °C 91 % 1034,6 hPa 0,0 l/m² 0,0 km/h 0 min 0,0 UV-I 0 W/m² -1,1 °C 99 %
15.02.2019 21:40 -1,0 °C 91 % 1034,5 hPa 0,0 l/m² 0,0 km/h 0 min 0,0 UV-I 0 W/m² -1,0 °C 99 %
15.02.2019 21:30 -0,9 °C 91 % 1034,5 hPa 0,0 l/m² 0,0 km/h 0 min 0,0 UV-I 0 W/m² -0,9 °C 100 %
15.02.2019 21:20 -0,8 °C 90 % 1034,5 hPa 0,0 l/m² 0,0 km/h 0 min 0,0 UV-I 0 W/m² -0,8 °C 100 %
15.02.2019 21:10 -0,8 °C 90 % 1034,5 hPa 0,0 l/m² 0,0 km/h 0 min 0,0 UV-I 0 W/m² -0,8 °C 99 %
15.02.2019 21:00 -0,6 °C 90 % 1034,8 hPa 0,0 l/m² 0,0 km/h 0 min 0,0 UV-I 0 W/m² -0,6 °C 100 %
15.02.2019 20:50 -0,5 °C 90 % 1034,8 hPa 0,0 l/m² 0,0 km/h 0 min 0,0 UV-I 0 W/m² -0,5 °C 100 %
15.02.2019 20:40 -0,3 °C 90 % 1034,8 hPa 0,0 l/m² 0,0 km/h 0 min 0,0 UV-I 0 W/m² -0,3 °C 99 %
15.02.2019 20:30 -0,2 °C 90 % 1034,9 hPa 0,0 l/m² 0,0 km/h 0 min 0,0 UV-I 0 W/m² -0,2 °C 100 %
15.02.2019 20:20 0,0 °C 89 % 1034,9 hPa 0,0 l/m² 0,0 km/h 0 min 0,0 UV-I 0 W/m² 0,0 °C 99 %
15.02.2019 20:10 0,2 °C 89 % 1035,0 hPa 0,0 l/m² 0,5 km/h 0 min 0,0 UV-I 0 W/m² 0,2 °C 100 %
15.02.2019 20:00 0,3 °C 88 % 1035,0 hPa 0,0 l/m² 0,1 km/h 0 min 0,0 UV-I 0 W/m² 0,3 °C 100 %
15.02.2019 19:50 0,6 °C 87 % 1035,0 hPa 0,0 l/m² 0,0 km/h 0 min 0,0 UV-I 0 W/m² 0,6 °C 100 %
15.02.2019 19:40 0,8 °C 86 % 1035,0 hPa 0,0 l/m² 0,0 km/h 0 min 0,0 UV-I 0 W/m² 0,8 °C 100 %
15.02.2019 19:30 1,0 °C 85 % 1035,0 hPa 0,0 l/m² 0,4 km/h 0 min 0,0 UV-I 0 W/m² 1,0 °C 100 %
15.02.2019 19:20 1,5 °C 85 % 1035,0 hPa 0,0 l/m² 0,0 km/h 0 min 0,0 UV-I 0 W/m² 1,5 °C 100 %
15.02.2019 19:10 1,9 °C 85 % 1035,1 hPa 0,0 l/m² 0,0 km/h 0 min 0,0 UV-I 0 W/m² 1,9 °C 100 %
15.02.2019 19:00 2,2 °C 84 % 1035,2 hPa 0,0 l/m² 0,0 km/h 0 min 0,0 UV-I 0 W/m² 2,2 °C 100 %
15.02.2019 18:50 2,3 °C 84 % 1035,2 hPa 0,0 l/m² 0,0 km/h 0 min 0,0 UV-I 0 W/m² 2,3 °C 100 %
15.02.2019 18:40 2,6 °C 83 % 1035,2 hPa 0,0 l/m² 0,8 km/h 0 min 0,0 UV-I 0 W/m² 2,6 °C 100 %
15.02.2019 18:30 3,1 °C 81 % 1035,3 hPa 0,0 l/m² 1,2 km/h 0 min 0,0 UV-I 0 W/m² 3,1 °C 100 %
15.02.2019 18:20 3,5 °C 78 % 1035,4 hPa 0,0 l/m² 1,1 km/h 0 min 0,0 UV-I 0 W/m² 3,5 °C 100 %
15.02.2019 18:10 4,4 °C 74 % 1035,3 hPa 0,0 l/m² 0,2 km/h 0 min 0,0 UV-I 0 W/m² 4,4 °C 100 %
15.02.2019 18:00 5,4 °C 71 % 1035,3 hPa 0,0 l/m² 0,0 km/h 0 min 0,0 UV-I 0 W/m² 5,4 °C 100 %
15.02.2019 17:50 6,3 °C 69 % 1035,3 hPa 0,0 l/m² 0,0 km/h 0 min 0,0 UV-I 0 W/m² 6,3 °C 100 %
15.02.2019 17:40 7,7 °C 64 % 1035,2 hPa 0,0 l/m² 0,0 km/h 0 min 0,0 UV-I 0 W/m² 7,7 °C 100 %
15.02.2019 17:30 8,4 °C 63 % 1035,3 hPa 0,0 l/m² 0,0 km/h 0 min 0,0 UV-I 5 W/m² 8,4 °C 100 %
15.02.2019 17:20 9,2 °C 62 % 1035,2 hPa 0,0 l/m² 0,0 km/h 0 min 0,0 UV-I 10 W/m² 9,2 °C 100 %
15.02.2019 17:10 9,6 °C 62 % 1035,3 hPa 0,0 l/m² 0,0 km/h 0 min 0,0 UV-I 13 W/m² 9,6 °C 99 %
15.02.2019 17:00 9,9 °C 58 % 1035,2 hPa 0,0 l/m² 0,0 km/h 0 min 0,0 UV-I 17 W/m² 9,9 °C 100 %
15.02.2019 16:50 10,2 °C 57 % 1035,2 hPa 0,0 l/m² 0,0 km/h 0 min 0,0 UV-I 20 W/m² 10,2 °C 100 %
15.02.2019 16:40 10,4 °C 56 % 1035,3 hPa 0,0 l/m² 0,0 km/h 0 min 0,0 UV-I 22 W/m² 10,4 °C 100 %
15.02.2019 16:30 10,7 °C 58 % 1035,4 hPa 0,0 l/m² 0,0 km/h 0 min 0,0 UV-I 25 W/m² 10,7 °C 100 %
15.02.2019 16:20 10,9 °C 58 % 1035,4 hPa 0,0 l/m² 0,0 km/h 0 min 0,0 UV-I 27 W/m² 10,9 °C 100 %
15.02.2019 16:10 11,1 °C 57 % 1035,5 hPa 0,0 l/m² 0,0 km/h 0 min 0,0 UV-I 28 W/m² 11,1 °C 100 %
15.02.2019 16:00 11,0 °C 57 % 1035,5 hPa 0,0 l/m² 0,0 km/h 0 min 0,1 UV-I 43 W/m² 11,0 °C 100 %
15.02.2019 15:50 10,7 °C 58 % 1035,6 hPa 0,0 l/m² 0,0 km/h 10 min 0,7 UV-I 231 W/m² 10,7 °C 100 %
15.02.2019 15:40 10,8 °C 57 % 1035,7 hPa 0,0 l/m² 0,0 km/h 10 min 0,7 UV-I 256 W/m² 10,8 °C 100 %
15.02.2019 15:30 10,9 °C 58 % 1035,8 hPa 0,0 l/m² 0,0 km/h 10 min 0,8 UV-I 277 W/m² 10,9 °C 99 %
15.02.2019 15:20 10,9 °C 59 % 1035,9 hPa 0,0 l/m² 0,1 km/h 10 min 0,9 UV-I 298 W/m² 10,9 °C 100 %
15.02.2019 15:10 10,8 °C 58 % 1035,9 hPa 0,0 l/m² 0,2 km/h 10 min 1,0 UV-I 318 W/m² 10,8 °C 100 %
15.02.2019 15:00 10,7 °C 59 % 1036,0 hPa 0,0 l/m² 0,0 km/h 10 min 1,1 UV-I 337 W/m² 10,7 °C 100 %
15.02.2019 14:50 10,8 °C 59 % 1036,1 hPa 0,0 l/m² 0,0 km/h 10 min 1,2 UV-I 355 W/m² 10,8 °C 100 %
15.02.2019 14:40 10,6 °C 60 % 1036,2 hPa 0,0 l/m² 0,0 km/h 10 min 1,3 UV-I 372 W/m² 10,6 °C 100 %
15.02.2019 14:30 10,2 °C 61 % 1036,2 hPa 0,0 l/m² 0,0 km/h 10 min 1,4 UV-I 387 W/m² 10,2 °C 100 %
15.02.2019 14:20 10,1 °C 62 % 1036,3 hPa 0,0 l/m² 0,1 km/h 10 min 1,5 UV-I 401 W/m² 10,1 °C 100 %
15.02.2019 14:10 9,9 °C 62 % 1036,3 hPa 0,0 l/m² 0,5 km/h 10 min 1,6 UV-I 414 W/m² 9,9 °C 100 %
15.02.2019 14:00 9,4 °C 63 % 1036,5 hPa 0,0 l/m² 0,1 km/h 10 min 1,7 UV-I 428 W/m² 9,4 °C 100 %
15.02.2019 13:50 8,8 °C 65 % 1036,6 hPa 0,0 l/m² 0,0 km/h 10 min 1,8 UV-I 440 W/m² 8,8 °C 100 %
15.02.2019 13:40 8,8 °C 64 % 1036,8 hPa 0,0 l/m² 0,1 km/h 10 min 1,8 UV-I 450 W/m² 8,8 °C 100 %
15.02.2019 13:30 8,2 °C 66 % 1037,0 hPa 0,0 l/m² 0,0 km/h 10 min 1,9 UV-I 456 W/m² 8,2 °C 100 %
15.02.2019 13:20 8,3 °C 65 % 1037,0 hPa 0,0 l/m² 0,4 km/h 10 min 2,0 UV-I 460 W/m² 8,3 °C 100 %
15.02.2019 13:10 8,2 °C 69 % 1037,3 hPa 0,0 l/m² 0,5 km/h 10 min 2,0 UV-I 466 W/m² 8,2 °C 100 %
15.02.2019 13:00 7,9 °C 69 % 1037,3 hPa 0,0 l/m² 0,7 km/h 10 min 2,1 UV-I 467 W/m² 7,9 °C 100 %
15.02.2019 12:50 7,3 °C 72 % 1037,4 hPa 0,0 l/m² 0,9 km/h 10 min 2,1 UV-I 471 W/m² 7,3 °C 100 %
15.02.2019 12:40 7,2 °C 71 % 1037,4 hPa 0,0 l/m² 0,0 km/h 10 min 2,1 UV-I 471 W/m² 7,2 °C 99 %
15.02.2019 12:30 6,6 °C 76 % 1037,4 hPa 0,0 l/m² 0,2 km/h 10 min 2,1 UV-I 468 W/m² 6,6 °C 100 %
15.02.2019 12:20 6,0 °C 76 % 1037,5 hPa 0,0 l/m² 0,3 km/h 10 min 2,1 UV-I 464 W/m² 6,0 °C 100 %
15.02.2019 12:10 5,8 °C 78 % 1037,6 hPa 0,0 l/m² 0,4 km/h 10 min 2,1 UV-I 458 W/m² 5,8 °C 100 %
15.02.2019 12:00 5,5 °C 77 % 1037,8 hPa 0,0 l/m² 0,0 km/h 10 min 2,1 UV-I 450 W/m² 5,5 °C 100 %
_ Min-Zeit 07:40 16:40 05:30 - 11:00 - - - 07:40 05:30
Minimum _ -4,2 °C 56 % 1031,9 hPa - 0,0 km/h - - - -4,2 °C 90 %
_ Max-Zeit 16:10 09:30 12:00 08:50 18:30 11:30 11:30 12:50 16:10 11:10
Maximum _ 11,1 °C 95 % 1037,8 hPa 0,2 l/m² 1,2 km/h
S-SO
10 min 2,1 UV-I 471 W/m² 11,1 °C 100 %
Durchschnitt _ 1,7 °C 83 % 1034,6 hPa #0,2 l/m² 0,1 km/h #2:50 h 1,3 UV-I 76 W/m² 1,7 °C 100 %